createdAt,value
2022-08-05T00:01:28.293Z,100093.23
2022-08-05T00:03:40.456Z,100093.75
2022-08-05T00:06:23.479Z,100085.78
2022-08-05T00:08:39.813Z,100086.53
2022-08-05T00:10:46.807Z,100093.45
2022-08-05T00:12:57.172Z,100088.44
2022-08-05T00:16:00.143Z,100083.95
2022-08-05T00:18:05.976Z,100082.01
2022-08-05T00:20:12.351Z,100077.53
2022-08-05T00:22:25.457Z,100082.47
2022-08-05T00:24:32.277Z,100084.77
2022-08-05T00:26:38.389Z,100079.95
2022-08-05T00:28:54.815Z,100084.52
2022-08-05T00:31:05.537Z,100078.95
2022-08-05T00:34:55.090Z,100079.63
2022-08-05T00:37:15.658Z,100077.09
2022-08-05T00:39:21.076Z,100070.42
2022-08-05T00:41:55.379Z,100066.7
2022-08-05T00:44:00.648Z,100070.61
2022-08-05T00:46:07.436Z,100069.86
2022-08-05T00:48:12.459Z,100060.81
2022-08-05T00:50:17.699Z,100068.54
2022-08-05T00:52:29.779Z,100062.91
2022-08-05T00:54:34.576Z,100063.31
2022-08-05T00:56:52.426Z,100065.85
2022-08-05T00:58:57.941Z,100064.12
2022-08-05T01:01:10.920Z,100062.64
2022-08-05T01:03:23.917Z,100058.66
2022-08-05T01:05:37.008Z,100056.75
2022-08-05T01:08:44.092Z,100053.49
2022-08-05T01:10:53.723Z,100049.66
2022-08-05T01:13:19.542Z,100052.16
2022-08-05T01:15:37.853Z,100051.23
2022-08-05T01:17:54.994Z,100049.8
2022-08-05T01:20:04.255Z,100048.48
2022-08-05T01:22:18.728Z,100040.8
2022-08-05T01:24:34.208Z,100043.56
2022-08-05T01:26:41.341Z,100040.16
2022-08-05T01:28:45.960Z,100042.39
2022-08-05T01:30:55.424Z,100036.48
2022-08-05T01:33:00.327Z,100030.16
2022-08-05T01:35:12.018Z,100033.41
2022-08-05T01:38:01.125Z,100033.98
2022-08-05T01:40:07.911Z,100033.66
2022-08-05T01:42:15.266Z,100034.03
2022-08-05T01:44:19.962Z,100032.08
2022-08-05T01:46:46.554Z,100027.59
2022-08-05T01:48:51.277Z,100027.54
2022-08-05T01:50:55.797Z,100027.38
2022-08-05T01:53:05.027Z,100028.8
2022-08-05T01:55:11.493Z,100029.01
2022-08-05T01:58:41.111Z,100023.2
2022-08-05T02:00:50.801Z,100025.17
2022-08-05T02:02:56.493Z,100020.81
2022-08-05T02:05:01.193Z,100023.28
2022-08-05T02:07:24.159Z,100017.55
2022-08-05T02:09:34.012Z,100015.21
2022-08-05T02:11:47.788Z,100016.59
2022-08-05T02:13:56.257Z,100016.92
2022-08-05T02:16:00.984Z,100018.94
2022-08-05T02:18:35.117Z,100012.79
2022-08-05T02:20:48.245Z,100012.96
2022-08-05T02:22:54.384Z,100009.3
2022-08-05T02:25:01.349Z,100009.7
2022-08-05T02:27:11.192Z,100010.63
2022-08-05T02:29:26.017Z,100005.28
2022-08-05T02:32:06.038Z,100004.48
2022-08-05T02:34:12.546Z,100002.06
2022-08-05T02:36:17.939Z,100002
2022-08-05T02:38:28.011Z,100000.44
2022-08-05T02:40:40.727Z,99997.92
2022-08-05T02:42:54.130Z,100000.27
2022-08-05T02:44:59.023Z,100001.44
2022-08-05T02:47:05.208Z,99997.88
2022-08-05T02:49:12.358Z,99996.11
2022-08-05T02:51:17.497Z,99996.09
2022-08-05T02:54:09.337Z,99995.66
2022-08-05T02:56:47.014Z,99992.84
2022-08-05T02:58:53.671Z,99992.83
2022-08-05T03:00:58.456Z,99992.42
2022-08-05T03:03:11.424Z,99985.38
2022-08-05T03:05:15.948Z,99987.8
2022-08-05T03:08:07.478Z,99987.96
2022-08-05T03:10:14.749Z,99984.64
2022-08-05T03:12:25.970Z,99983.94
2022-08-05T03:14:31.800Z,99981.89
2022-08-05T03:16:36.944Z,99979.53
2022-08-05T03:18:43.169Z,99979.13
2022-08-05T03:20:52.332Z,99981.28
2022-08-05T03:23:02.135Z,99979.34
2022-08-05T03:26:03.551Z,99974.57
2022-08-05T03:28:36.522Z,99977.1
2022-08-05T03:30:43.355Z,99976.6
2022-08-05T03:32:50.844Z,99972.53
2022-08-05T03:34:55.456Z,99973.09
2022-08-05T03:36:59.973Z,99970.41
2022-08-05T03:39:06.098Z,99970.57
2022-08-05T03:41:25.304Z,99973.59
2022-08-05T03:44:12.142Z,99972.9
2022-08-05T03:46:29.904Z,99973.52
2022-08-05T03:48:37.740Z,99971.8
2022-08-05T03:50:46.560Z,99972.42
2022-08-05T03:56:06.409Z,99974.6
2022-08-05T03:58:35.380Z,99975.88
2022-08-05T04:00:44.300Z,99972.78
2022-08-05T04:03:00.250Z,99972.16
2022-08-05T04:05:04.876Z,99975.97
2022-08-05T04:07:14.290Z,99968.89
2022-08-05T04:09:27.427Z,99968.07
2022-08-05T04:11:52.677Z,99963.22
2022-08-05T04:14:01.512Z,99962.85
2022-08-05T04:16:06.336Z,99963.45
2022-08-05T04:18:22.389Z,99964.66
2022-08-05T04:20:29.960Z,99960.45
2022-08-05T04:22:37.390Z,99966.17
2022-08-05T04:24:53.415Z,99963.52
2022-08-05T04:26:59.331Z,99959.27
2022-08-05T04:29:08.520Z,99959.72
2022-08-05T04:31:13.751Z,99960.19
2022-08-05T04:33:55.157Z,99951.63
2022-08-05T04:36:51.366Z,99954.73
2022-08-05T04:38:58.276Z,99953.53
2022-08-05T04:41:04.702Z,99955.64
2022-08-05T04:43:17.577Z,99955.53
2022-08-05T04:45:54.828Z,99958.68
2022-08-05T04:48:01.591Z,99958.52
2022-08-05T04:50:12.650Z,99960.69
2022-08-05T04:52:39.329Z,99964.41
2022-08-05T04:54:44.114Z,99963.15
2022-08-05T04:56:48.611Z,99963.48
2022-08-05T04:58:53.595Z,99965.31
2022-08-05T05:00:58.324Z,99967.78
2022-08-05T05:03:05.559Z,99967.03
2022-08-05T05:05:28.512Z,99969.46
2022-08-05T05:07:37.158Z,99969.73
2022-08-05T05:10:03.234Z,99969.45
2022-08-05T05:12:08.804Z,99971.06
2022-08-05T05:14:17.356Z,99970.02
2022-08-05T05:16:35.771Z,99975.33
2022-08-05T05:18:48.512Z,99973.09
2022-08-05T05:21:28.114Z,99971.14
2022-08-05T05:24:04.383Z,99969.18
2022-08-05T05:26:16.371Z,99962.92
2022-08-05T05:28:21.792Z,99961.67
2022-08-05T05:30:34.829Z,99966.31
2022-08-05T05:32:42.115Z,99961.13
2022-08-05T05:34:53.594Z,99958.95
2022-08-05T05:36:58.113Z,99959.11
2022-08-05T05:39:05.465Z,99955.45
2022-08-05T05:41:19.440Z,99957.69
2022-08-05T05:44:00.389Z,99970.86
2022-08-05T05:46:07.712Z,99961.91
2022-08-05T05:48:28.831Z,99961.23
2022-08-05T05:50:45.458Z,99963.11
2022-08-05T05:52:51.826Z,99967.05
2022-08-05T05:54:56.642Z,99967.69
2022-08-05T05:57:01.576Z,99969.34
2022-08-05T05:59:17.059Z,99967.14
2022-08-05T06:01:24.660Z,99967.72
2022-08-05T06:04:03.764Z,99965
2022-08-05T06:06:10.176Z,99967.76
2022-08-05T06:08:33.932Z,99969.94
2022-08-05T06:10:53.882Z,99964.98
2022-08-05T06:12:58.597Z,99964.38
2022-08-05T06:15:03.647Z,99960.5
2022-08-05T06:17:32.245Z,99962.75
2022-08-05T06:20:01.018Z,99967.19
2022-08-05T06:22:07.383Z,99969.28
2022-08-05T06:24:15.831Z,99972.21
2022-08-05T06:26:33.889Z,99971.48
2022-08-05T06:28:41.416Z,99967.56
2022-08-05T06:30:46.582Z,99969.81
2022-08-05T06:32:53.219Z,99965.93
2022-08-05T06:35:00.282Z,99961.08
2022-08-05T06:37:59.505Z,99962.98
2022-08-05T06:40:17.982Z,99966.19
2022-08-05T06:42:32.493Z,99968.73
2022-08-05T06:44:36.879Z,99965.92
2022-08-05T06:46:43.481Z,99964.41
2022-08-05T06:48:58.695Z,99966.66
2022-08-05T06:51:12.063Z,99962.88
2022-08-05T06:53:40.331Z,99965.11
2022-08-05T06:55:57.708Z,99959.94
2022-08-05T06:58:30.348Z,99958.61
2022-08-05T07:00:42.322Z,99954.88
2022-08-05T07:02:55.324Z,99957.84
2022-08-05T07:04:59.974Z,99957.84
2022-08-05T07:07:09.002Z,99961.62
2022-08-05T07:09:15.000Z,99953.73
2022-08-05T07:11:25.335Z,99953.15
2022-08-05T07:14:00.180Z,99954.74
2022-08-05T07:16:05.927Z,99957.95
2022-08-05T07:18:30.681Z,99953.25
2022-08-05T07:20:39.831Z,99948.72
2022-08-05T07:22:49.021Z,99952.39
2022-08-05T07:24:55.900Z,99949.13
2022-08-05T07:27:03.906Z,99950.09
2022-08-05T07:29:13.540Z,99944.77
2022-08-05T07:31:18.158Z,99943.72
2022-08-05T07:34:00.944Z,99945.27
2022-08-05T07:36:22.491Z,99944.52
2022-08-05T07:38:43.046Z,99947.3
2022-08-05T07:41:00.259Z,99946.77
2022-08-05T07:44:20.513Z,99946.16
2022-08-05T07:46:27.475Z,99946.62
2022-08-05T07:49:07.908Z,99947.7
2022-08-05T07:51:37.703Z,99942.14
2022-08-05T07:53:59.094Z,99941.29
2022-08-05T07:57:15.174Z,99943.06
2022-08-05T08:00:00.934Z,99947.2
2022-08-05T08:02:05.423Z,99949.15
2022-08-05T08:04:37.270Z,99947.43
2022-08-05T08:06:46.952Z,99948.98
2022-08-05T08:08:55.676Z,99948.11
2022-08-05T08:11:00.468Z,99939.68
2022-08-05T08:13:05.206Z,99945.3
2022-08-05T08:15:17.009Z,99935.84
2022-08-05T08:18:38.637Z,99931.37
2022-08-05T08:21:03.309Z,99933.49
2022-08-05T08:24:06.172Z,99933.89
2022-08-05T08:26:29.882Z,99933.38
2022-08-05T08:28:49.676Z,99930.97
2022-08-05T08:31:34.062Z,99928.98
2022-08-05T08:33:39.655Z,99931.45
2022-08-05T08:36:12.943Z,99935.05
2022-08-05T08:38:56.866Z,99937.47
2022-08-05T08:41:01.810Z,99933.58
2022-08-05T08:45:27.307Z,99930.83
2022-08-05T08:48:13.002Z,99931.7
2022-08-05T08:52:13.206Z,99931.77
2022-08-05T08:54:18.687Z,99930.86
2022-08-05T08:56:31.078Z,99929.6
2022-08-05T08:58:47.775Z,99932.63
2022-08-05T09:00:54.322Z,99928.84
2022-08-05T09:03:00.369Z,99928.61
2022-08-05T09:05:19.174Z,99928.85
2022-08-05T09:08:16.052Z,99930.34
2022-08-05T09:10:29.569Z,99925.02
2022-08-05T09:12:36.527Z,99918.48
2022-08-05T09:15:04.106Z,99915
2022-08-05T09:17:45.814Z,99913.75
2022-08-05T09:20:05.767Z,99907.11
2022-08-05T09:22:31.450Z,99911.77
2022-08-05T09:24:39.112Z,99909.48
2022-08-05T09:26:45.255Z,99915.59
2022-08-05T09:28:50.366Z,99911.41
2022-08-05T09:30:55.222Z,99913.59
2022-08-05T09:33:00.722Z,99909.87
2022-08-05T09:35:05.750Z,99911.53
2022-08-05T09:37:17.951Z,99915.84
2022-08-05T09:40:23.815Z,99908.05
2022-08-05T09:42:30.103Z,99910.97
2022-08-05T09:44:38.281Z,99912.23
2022-08-05T09:46:58.110Z,99904.12
2022-08-05T09:49:18.714Z,99901.48
2022-08-05T09:51:24.438Z,99900.5
2022-08-05T09:53:59.035Z,99902.47
2022-08-05T09:56:12.765Z,99903.05
2022-08-05T09:58:19.920Z,99909.98
2022-08-05T10:00:25.770Z,99910.73
2022-08-05T10:02:33.303Z,99908.25
2022-08-05T10:04:40.561Z,99903.16
2022-08-05T10:07:01.567Z,99902.86
2022-08-05T10:10:42.851Z,99898.47
2022-08-05T10:12:51.257Z,99906.94
2022-08-05T10:15:00.747Z,99901.03
2022-08-05T10:17:37.032Z,99902.7
2022-08-05T10:20:11.087Z,99895.83
2022-08-05T10:22:37.863Z,99901.46
2022-08-05T10:24:54.408Z,99892.95
2022-08-05T10:27:01.749Z,99890.73
2022-08-05T10:29:11.121Z,99887.3
2022-08-05T10:33:00.671Z,99883.98
2022-08-05T10:35:08.031Z,99883.36
2022-08-05T10:37:14.838Z,99882.73
2022-08-05T10:39:58.624Z,99880.16
2022-08-05T10:42:35.289Z,99878.27
2022-08-05T10:44:47.478Z,99871.96
2022-08-05T10:46:55.531Z,99867.09
2022-08-05T10:49:16.729Z,99871.95
2022-08-05T10:51:30.869Z,99871.27
2022-08-05T10:54:32.719Z,99868.23
2022-08-05T10:56:53.931Z,99872.81
2022-08-05T11:00:01.602Z,99870.85
2022-08-05T11:02:43.586Z,99871.69
2022-08-05T11:04:56.648Z,99872.72
2022-08-05T11:07:02.415Z,99869.67
2022-08-05T11:09:09.450Z,99867.84
2022-08-05T11:11:20.411Z,99867.61
2022-08-05T11:13:24.932Z,99864.4
2022-08-05T11:16:02.625Z,99861.42
2022-08-05T11:18:07.188Z,99864.16
2022-08-05T11:20:19.512Z,99861.53
2022-08-05T11:22:30.349Z,99864.8
2022-08-05T11:24:39.825Z,99864.34
2022-08-05T11:28:07.956Z,99856.05
2022-08-05T11:30:20.763Z,99855.7
2022-08-05T11:32:32.066Z,99857.94
2022-08-05T11:34:36.619Z,99859.44
2022-08-05T11:36:43.824Z,99865.85
2022-08-05T11:38:59.434Z,99865.63
2022-08-05T11:42:02.193Z,99862.95
2022-08-05T11:44:12.363Z,99864.7
2022-08-05T11:47:14.997Z,99857.3
2022-08-05T11:49:52.353Z,99855.66
2022-08-05T11:51:58.611Z,99858.35
2022-08-05T11:54:03.427Z,99861.24
2022-08-05T11:56:12.423Z,99860.23
2022-08-05T11:58:18.546Z,99869.03
2022-08-05T12:00:28.781Z,99862.48
2022-08-05T12:02:37.193Z,99857.61
2022-08-05T12:05:00.888Z,99866.84
2022-08-05T12:07:14.220Z,99855.07
2022-08-05T12:09:21.311Z,99854.55
2022-08-05T12:11:56.647Z,99855.72
2022-08-05T12:14:06.333Z,99850.21
2022-08-05T12:16:16.474Z,99845.97
2022-08-05T12:18:28.447Z,99847.92
2022-08-05T12:20:37.047Z,99841.77
2022-08-05T12:22:47.196Z,99840.94
2022-08-05T12:24:56.887Z,99845.34
2022-08-05T12:27:21.439Z,99844.12
2022-08-05T12:29:40.233Z,99842.5
2022-08-05T12:31:53.349Z,99840.04
2022-08-05T12:33:59.406Z,99839.86
2022-08-05T12:36:09.633Z,99839.3
2022-08-05T12:38:16.273Z,99839.04
2022-08-05T12:40:35.030Z,99841.22
2022-08-05T12:42:40.345Z,99839.92
2022-08-05T12:44:44.970Z,99839.58
2022-08-05T12:46:52.023Z,99831.56
2022-08-05T12:48:56.693Z,99831.95
2022-08-05T12:51:02.637Z,99836.9
2022-08-05T12:53:38.736Z,99826.58
2022-08-05T12:55:44.176Z,99825.53
2022-08-05T12:58:53.975Z,99824.65
2022-08-05T13:02:07.258Z,99828.16
2022-08-05T13:04:16.655Z,99828.16
2022-08-05T13:06:28.726Z,99829.6
2022-08-05T13:08:35.101Z,99829.61
2022-08-05T13:10:51.351Z,99827.02
2022-08-05T13:12:59.389Z,99828.34
2022-08-05T13:15:12.390Z,99822.2
2022-08-05T13:17:42.678Z,99820.2
2022-08-05T13:19:54.140Z,99818.63
2022-08-05T13:22:00.119Z,99813.69
2022-08-05T13:24:08.641Z,99815.64
2022-08-05T13:26:17.352Z,99815.71
2022-08-05T13:28:23.820Z,99816.47
2022-08-05T13:30:39.204Z,99811.45
2022-08-05T13:32:51.760Z,99806.13
2022-08-05T13:34:59.932Z,99806.7
2022-08-05T13:37:04.476Z,99810.55
2022-08-05T13:40:27.543Z,99805.22
2022-08-05T13:42:56.878Z,99808.94
2022-08-05T13:45:01.822Z,99806
2022-08-05T13:47:10.174Z,99812.48
2022-08-05T13:50:59.969Z,99811.53
2022-08-05T13:53:15.677Z,99808.38
2022-08-05T13:55:49.354Z,99809.39
2022-08-05T13:58:06.049Z,99813.17
2022-08-05T14:00:14.671Z,99806.98
2022-08-05T14:02:29.653Z,99802.91
2022-08-05T14:04:37.278Z,99800.28
2022-08-05T14:06:48.810Z,99794.17
2022-08-05T14:09:58.480Z,99792.05
2022-08-05T14:12:32.066Z,99792.68
2022-08-05T14:14:36.638Z,99793.48
2022-08-05T14:16:43.654Z,99801.83
2022-08-05T14:19:05.498Z,99795.11
2022-08-05T14:22:12.227Z,99796.75
2022-08-05T14:24:20.684Z,99788.03
2022-08-05T14:26:47.151Z,99790.97
2022-08-05T14:29:23.676Z,99788.84
2022-08-05T14:32:16.068Z,99787.29
2022-08-05T14:34:36.151Z,99785.11
2022-08-05T14:36:40.830Z,99787.87
2022-08-05T14:38:52.209Z,99788.09
2022-08-05T14:40:57.753Z,99780.91
2022-08-05T14:43:02.266Z,99781.72
2022-08-05T14:45:10.196Z,99781.95
2022-08-05T14:47:14.790Z,99782.98
2022-08-05T14:49:19.886Z,99784.81
2022-08-05T14:51:25.394Z,99785.45
2022-08-05T14:53:45.562Z,99786.95
2022-08-05T14:56:44.148Z,99778.51
2022-08-05T14:58:54.390Z,99778.11
2022-08-05T15:01:01.488Z,99772.29
2022-08-05T15:03:10.603Z,99769.04
2022-08-05T15:05:15.117Z,99768.95
2022-08-05T15:08:16.932Z,99769.94
2022-08-05T15:11:07.376Z,99762.41
2022-08-05T15:13:11.856Z,99763.45
2022-08-05T15:15:16.821Z,99759.81
2022-08-05T15:18:05.772Z,99759.98
2022-08-05T15:20:24.593Z,99763.09
2022-08-05T15:22:30.901Z,99764.98
2022-08-05T15:24:40.741Z,99766.19
2022-08-05T15:26:45.262Z,99768.77
2022-08-05T15:28:54.285Z,99768.95
2022-08-05T15:30:58.827Z,99765.8
2022-08-05T15:33:08.784Z,99763.16
2022-08-05T15:35:15.936Z,99763.84
2022-08-05T15:38:35.289Z,99759.69
2022-08-05T15:41:24.077Z,99757.97
2022-08-05T15:44:05.414Z,99749.95
2022-08-05T15:46:10.993Z,99747.31
2022-08-05T15:48:16.282Z,99749.89
2022-08-05T15:50:26.124Z,99745.01
2022-08-05T15:52:57.001Z,99743.8
2022-08-05T15:55:08.758Z,99737.14
2022-08-05T15:57:20.176Z,99737.48
2022-08-05T15:59:25.724Z,99737.94
2022-08-05T16:01:52.215Z,99735.93
2022-08-05T16:04:02.988Z,99740.06
2022-08-05T16:06:07.543Z,99737.77
2022-08-05T16:08:17.181Z,99739.66
2022-08-05T16:10:26.932Z,99741.44
2022-08-05T16:12:33.008Z,99744.49
2022-08-05T16:14:37.603Z,99741.73
2022-08-05T16:16:42.940Z,99737.83
2022-08-05T16:18:53.442Z,99736.91
2022-08-05T16:20:58.014Z,99735.24
2022-08-05T16:23:10.421Z,99735.53
2022-08-05T16:25:15.859Z,99735.07
2022-08-05T16:28:00.546Z,99736.51
2022-08-05T16:30:28.977Z,99735.59
2022-08-05T16:32:35.607Z,99735.24
2022-08-05T16:34:43.698Z,99735.98
2022-08-05T16:36:49.499Z,99735.53
2022-08-05T16:38:57.319Z,99736.39
2022-08-05T16:42:18.639Z,99740.76
2022-08-05T16:44:34.010Z,99739.7
2022-08-05T16:46:42.116Z,99740.61
2022-08-05T16:49:00.766Z,99740.91
2022-08-05T16:51:11.191Z,99737.05
2022-08-05T16:54:03.592Z,99732.75
2022-08-05T16:56:20.887Z,99735.05
2022-08-05T16:58:27.743Z,99734.76
2022-08-05T17:00:37.571Z,99737.74
2022-08-05T17:02:43.563Z,99735.62
2022-08-05T17:04:48.596Z,99735.16
2022-08-05T17:06:54.754Z,99737.14
2022-08-05T17:09:03.676Z,99735.97
2022-08-05T17:11:16.763Z,99741.27
2022-08-05T17:13:37.579Z,99743.8
2022-08-05T17:15:55.578Z,99744.89
2022-08-05T17:18:31.370Z,99744.83
2022-08-05T17:20:38.444Z,99752.3
2022-08-05T17:22:56.491Z,99751.3
2022-08-05T17:25:22.425Z,99752.02
2022-08-05T17:27:44.788Z,99751.67
2022-08-05T17:30:02.320Z,99755.06
2022-08-05T17:32:11.572Z,99761.98
2022-08-05T17:34:34.824Z,99761.58
2022-08-05T17:36:41.943Z,99764.28
2022-08-05T17:38:48.935Z,99762.67
2022-08-05T17:40:53.453Z,99763.36
2022-08-05T17:43:00.628Z,99768.3
2022-08-05T17:45:22.875Z,99769.91
2022-08-05T17:47:27.927Z,99769.86
2022-08-05T17:50:10.559Z,99772.16
2022-08-05T17:52:16.745Z,99778.13
2022-08-05T17:54:24.690Z,99778.05
2022-08-05T17:56:29.668Z,99774.83
2022-08-05T17:58:40.283Z,99781.78
2022-08-05T18:00:52.078Z,99783.96
2022-08-05T18:03:01.637Z,99786.66
2022-08-05T18:05:08.650Z,99787.95
2022-08-05T18:07:21.656Z,99790.48
2022-08-05T18:10:02.197Z,99787.55
2022-08-05T18:12:25.371Z,99788.88
2022-08-05T18:14:32.183Z,99794.22
2022-08-05T18:16:52.605Z,99811.8
2022-08-05T18:18:58.483Z,99821.17
2022-08-05T18:21:04.230Z,99826.74
2022-08-05T18:23:33.190Z,99832.31
2022-08-05T18:26:00.469Z,99837.63
2022-08-05T18:28:06.658Z,99841.76
2022-08-05T18:30:13.912Z,99842.7
2022-08-05T18:32:18.844Z,99850.91
2022-08-05T18:34:42.772Z,99850.33
2022-08-05T18:36:49.667Z,99857.17
2022-08-05T18:38:58.638Z,99856.78
2022-08-05T18:42:04.868Z,99859.48
2022-08-05T18:44:35.297Z,99867.3
2022-08-05T18:47:00.183Z,99868.2
2022-08-05T18:49:05.842Z,99869.59
2022-08-05T18:52:08.756Z,99879.19
2022-08-05T18:54:15.127Z,99882.73
2022-08-05T18:56:25.178Z,99887.04
2022-08-05T18:58:30.236Z,99895.14
2022-08-05T19:00:49.233Z,99900.83
2022-08-05T19:02:55.146Z,99896.06
2022-08-05T19:06:06.690Z,99903.19
2022-08-05T19:08:42.025Z,99905.9
2022-08-05T19:10:46.699Z,99907.22
2022-08-05T19:12:51.265Z,99912.84
2022-08-05T19:15:03.264Z,99919.84
2022-08-05T19:17:08.957Z,99918.66
2022-08-05T19:19:22.109Z,99930.19
2022-08-05T19:21:29.465Z,99932.38
2022-08-05T19:24:12.403Z,99931.34
2022-08-05T19:26:17.726Z,99937.84
2022-08-05T19:28:24.332Z,99951.02
2022-08-05T19:30:29.081Z,99956.52
2022-08-05T19:32:34.053Z,99955.14
2022-08-05T19:34:39.485Z,99961.74
2022-08-05T19:36:48.301Z,99956.52
2022-08-05T19:38:52.972Z,99963.42
2022-08-05T19:40:57.615Z,99959.61
2022-08-05T19:43:07.256Z,99968.64
2022-08-05T19:46:31.009Z,99976.86
2022-08-05T19:48:38.385Z,99976.03
2022-08-05T19:50:45.312Z,99974.73
2022-08-05T19:52:49.738Z,99975.94
2022-08-05T19:54:55.064Z,99975.53
2022-08-05T19:57:10.151Z,99977.99
2022-08-05T20:00:02.258Z,99974.83
2022-08-05T20:02:12.067Z,99979.41
2022-08-05T20:04:16.969Z,99973.78
2022-08-05T20:06:30.728Z,99974.66
2022-08-05T20:08:50.199Z,99980.68
2022-08-05T20:10:56.464Z,99982.11
2022-08-05T20:13:01.737Z,99982.39
2022-08-05T20:15:09.797Z,99987.78
2022-08-05T20:17:17.325Z,99993
2022-08-05T20:19:24.067Z,99997.83
2022-08-05T20:21:45.847Z,99999.95
2022-08-05T20:23:54.396Z,100005.36
2022-08-05T20:26:00.965Z,100007.82
2022-08-05T20:28:06.405Z,100010.92
2022-08-05T20:30:20.804Z,100012.19
2022-08-05T20:32:31.105Z,100017.77
2022-08-05T20:34:39.637Z,100018.34
2022-08-05T20:36:45.982Z,100024.89
2022-08-05T20:38:58.704Z,100027.06
2022-08-05T20:41:09.155Z,100022.48
2022-08-05T20:43:14.222Z,100028.45
2022-08-05T20:45:22.179Z,100029.36
2022-08-05T20:48:04.320Z,100035.83
2022-08-05T20:50:12.639Z,100047.25
2022-08-05T20:52:19.152Z,100050
2022-08-05T20:54:25.724Z,100054.77
2022-08-05T20:57:58.826Z,100056.77
2022-08-05T21:00:44.454Z,100057.94
2022-08-05T21:03:02.217Z,100055.11
2022-08-05T21:05:10.383Z,100059.19
2022-08-05T21:07:15.046Z,100066.7
2022-08-05T21:09:20.807Z,100074.64
2022-08-05T21:12:12.163Z,100083.75
2022-08-05T21:14:27.588Z,100084.67
2022-08-05T21:16:38.445Z,100096.39
2022-08-05T21:18:46.161Z,100106.39
2022-08-05T21:20:51.392Z,100131.66
2022-08-05T21:22:56.530Z,100149.48
2022-08-05T21:25:02.930Z,100161.56
2022-08-05T21:27:10.469Z,100170.06
2022-08-05T21:29:17.961Z,100180.08
2022-08-05T21:31:42.066Z,100169.48
2022-08-05T21:33:50.564Z,100165.64
2022-08-05T21:36:00.111Z,100165.02
2022-08-05T21:38:04.830Z,100169.59
2022-08-05T21:40:16.546Z,100165.83
2022-08-05T21:42:45.992Z,100155.5
2022-08-05T21:44:57.765Z,100147.29
2022-08-05T21:47:03.504Z,100137.29
2022-08-05T21:50:02.869Z,100115.73
2022-08-05T21:52:28.899Z,100123.95
2022-08-05T21:54:35.342Z,100120.89
2022-08-05T21:56:51.551Z,100137.88
2022-08-05T22:00:04.799Z,100147.73
2022-08-05T22:02:15.148Z,100145.45
2022-08-05T22:04:25.563Z,100132.57
2022-08-05T22:06:40.652Z,100124.07
2022-08-05T22:08:53.859Z,100132.13
2022-08-05T22:11:00.740Z,100139.38
2022-08-05T22:14:37.602Z,100137.62
2022-08-05T22:16:55.913Z,100130.56
2022-08-05T22:20:02.349Z,100144.92
2022-08-05T22:22:29.386Z,100162.41
2022-08-05T22:24:51.924Z,100168.09
2022-08-05T22:27:00.887Z,100179.19
2022-08-05T22:29:30.606Z,100183.81
2022-08-05T22:31:45.821Z,100187.38
2022-08-05T22:34:07.039Z,100197.21
2022-08-05T22:36:16.674Z,100199.74
2022-08-05T22:38:26.825Z,100201.06
2022-08-05T22:40:31.854Z,100205.09
2022-08-05T22:42:45.783Z,100202.22
2022-08-05T22:45:03.465Z,100198.09
2022-08-05T22:47:08.450Z,100195.27
2022-08-05T22:50:23.666Z,100199.58
2022-08-05T22:52:36.020Z,100201.7
2022-08-05T22:54:49.867Z,100205.73
2022-08-05T22:56:54.855Z,100206.3
2022-08-05T22:59:42.740Z,100215.23
2022-08-05T23:02:08.140Z,100216.55
2022-08-05T23:04:12.994Z,100211.72
2022-08-05T23:06:20.162Z,100204.16
2022-08-05T23:08:32.450Z,100201.12
2022-08-05T23:10:40.044Z,100203.39
2022-08-05T23:12:45.128Z,100202.27
2022-08-05T23:14:50.745Z,100209.62
2022-08-05T23:16:55.319Z,100199.17
2022-08-05T23:19:03.667Z,100201.38
2022-08-05T23:21:48.219Z,100204.59
2022-08-05T23:23:53.338Z,100210.61
2022-08-05T23:26:00.773Z,100213.25
2022-08-05T23:28:08.062Z,100223.81
2022-08-05T23:30:12.707Z,100220.65
2022-08-05T23:32:23.664Z,100218.58
2022-08-05T23:34:30.685Z,100222.19
2022-08-05T23:36:41.409Z,100231.38
2022-08-05T23:38:50.781Z,100232.92
2022-08-05T23:40:57.145Z,100239.41
2022-08-05T23:43:24.707Z,100241.71
2022-08-05T23:46:22.300Z,100250.95
2022-08-05T23:48:27.549Z,100252.4
2022-08-05T23:50:33.689Z,100248.72
2022-08-05T23:52:50.867Z,100251.58
2022-08-05T23:54:57.338Z,100251.3
2022-08-05T23:57:05.220Z,100252.73
2022-08-05T23:59:10.200Z,100256.74
